Terminal Aerodrome Forecast
Issued by NWS

Home | Current Version | Previous Version | Text Only | Print | Product List | Glossary On
Versions: 1 2 3 4 5 6 7 8 9 10 11 12 13 14 15 16 17
000
FTUS46 KSGX 270000 AAA
TAFSNA
TAF AMD
KSNA 270015Z 2700/2724 16008KT 3SM RA BKN050 OVC090
     FM270045 VRB04KT P6SM -SHRA BKN060 OVC090
     FM270600 VRB04KT P6SM BKN060
     FM271200 VRB05KT P6SM SCT060
     FM272000 22008KT P6SM FEW060 FEW200=

USA.gov is the U.S. government's official web portal to all federal, state and local government web resources and services.